createdAt,value
2018-08-04T00:00:31.787Z,11.00
2018-08-04T00:05:26.482Z,11.25
2018-08-04T00:10:22.086Z,10.35
2018-08-04T00:15:17.000Z,10.78
2018-08-04T00:20:11.629Z,10.20
2018-08-04T00:25:06.415Z,10.95
2018-08-04T00:30:01.052Z,10.70
2018-08-04T00:34:55.678Z,10.93
2018-08-04T00:39:50.472Z,10.58
2018-08-04T00:44:45.127Z,10.95
2018-08-04T00:49:39.778Z,11.20
2018-08-04T00:54:34.345Z,10.48
2018-08-04T00:59:28.976Z,10.70
2018-08-04T01:04:23.666Z,10.60
2018-08-04T01:09:18.266Z,10.85
2018-08-04T01:14:12.879Z,11.43
2018-08-04T01:19:07.493Z,11.18
2018-08-04T01:24:02.033Z,11.28
2018-08-04T01:28:57.525Z,11.73
2018-08-04T01:33:52.126Z,10.98
2018-08-04T01:38:46.752Z,11.05
2018-08-04T01:43:41.382Z,11.18
2018-08-04T01:48:36.033Z,10.53
2018-08-04T01:53:30.722Z,10.65
2018-08-04T01:58:25.315Z,11.97
2018-08-04T02:03:19.923Z,10.95
2018-08-04T02:08:14.526Z,11.25
2018-08-04T02:13:09.193Z,11.55
2018-08-04T02:18:03.804Z,12.03
2018-08-04T02:22:58.396Z,11.25
2018-08-04T02:27:52.695Z,11.40
2018-08-04T02:32:47.265Z,11.28
2018-08-04T02:37:41.959Z,12.20
2018-08-04T02:42:36.594Z,11.68
2018-08-04T02:47:31.170Z,12.33
2018-08-04T02:52:26.089Z,11.93
2018-08-04T02:57:20.704Z,11.60
2018-08-04T03:02:15.369Z,11.73
2018-08-04T03:07:10.275Z,12.30
2018-08-04T03:12:05.329Z,12.80
2018-08-04T03:16:59.880Z,12.78
2018-08-04T03:21:54.538Z,12.60
2018-08-04T03:26:49.142Z,12.63
2018-08-04T03:31:43.784Z,12.95
2018-08-04T03:36:38.934Z,12.23
2018-08-04T03:41:33.592Z,11.83
2018-08-04T03:46:28.180Z,12.82
2018-08-04T03:51:22.766Z,13.28
2018-08-04T03:56:17.379Z,13.15
2018-08-04T04:01:11.988Z,12.75
2018-08-04T04:06:06.724Z,12.93
2018-08-04T04:11:01.354Z,13.03
2018-08-04T04:15:56.034Z,12.78
2018-08-04T04:20:50.682Z,12.75
2018-08-04T04:25:45.304Z,12.53
2018-08-04T04:30:39.892Z,13.13
2018-08-04T04:35:34.549Z,13.38
2018-08-04T04:40:29.197Z,12.65
2018-08-04T04:45:23.779Z,13.22
2018-08-04T04:50:18.399Z,13.08
2018-08-04T04:55:13.018Z,12.33
2018-08-04T05:00:07.691Z,12.70
2018-08-04T05:05:02.295Z,12.63
2018-08-04T05:09:57.412Z,13.08
2018-08-04T05:14:51.982Z,12.78
2018-08-04T05:19:46.601Z,12.65
2018-08-04T05:24:41.209Z,13.05
2018-08-04T05:29:35.975Z,12.43
2018-08-04T05:34:30.599Z,13.20
2018-08-04T05:39:25.249Z,13.03
2018-08-04T05:44:19.934Z,14.03
2018-08-04T05:49:14.551Z,13.22
2018-08-04T05:54:08.844Z,13.85
2018-08-04T05:59:03.445Z,14.23
2018-08-04T06:03:58.053Z,13.38
2018-08-04T06:08:52.754Z,13.45
2018-08-04T06:13:47.916Z,13.20
2018-08-04T06:18:43.950Z,12.80
2018-08-04T06:23:38.526Z,13.35
2018-08-04T06:28:33.163Z,14.80
2018-08-04T06:33:27.755Z,13.93
2018-08-04T06:38:22.379Z,12.88
2018-08-04T06:43:17.013Z,13.83
2018-08-04T06:48:11.631Z,14.10
2018-08-04T06:53:06.335Z,13.32
2018-08-04T06:58:00.978Z,12.25
2018-08-04T07:02:55.670Z,13.48
2018-08-04T07:07:50.291Z,13.75
2018-08-04T07:12:44.970Z,14.00
2018-08-04T07:17:39.548Z,12.28
2018-08-04T07:22:34.238Z,12.37
2018-08-04T07:27:28.919Z,13.35
2018-08-04T07:32:23.507Z,13.62
2018-08-04T07:37:17.790Z,13.03
2018-08-04T07:42:12.429Z,12.73
2018-08-04T07:47:07.151Z,11.57
2018-08-04T07:52:02.428Z,14.13
2018-08-04T07:56:57.212Z,13.25
2018-08-04T08:01:51.930Z,12.75
2018-08-04T08:06:46.546Z,12.50
2018-08-04T08:11:41.214Z,12.20
2018-08-04T08:16:35.792Z,12.73
2018-08-04T08:21:30.475Z,11.68
2018-08-04T08:26:25.069Z,12.20
2018-08-04T08:31:19.931Z,13.40
2018-08-04T08:36:14.570Z,12.80
2018-08-04T08:41:10.059Z,12.28
2018-08-04T08:46:04.417Z,12.25
2018-08-04T08:50:59.067Z,11.25
2018-08-04T08:55:53.983Z,11.50
2018-08-04T09:00:48.345Z,9.73
2018-08-04T09:05:43.017Z,10.75
2018-08-04T09:10:37.664Z,10.50
2018-08-04T09:15:32.327Z,10.45
2018-08-04T09:20:28.370Z,11.70
2018-08-04T09:25:23.509Z,11.25
2018-08-04T09:30:18.102Z,11.40
2018-08-04T09:35:13.896Z,10.48
2018-08-04T09:40:11.894Z,10.75
2018-08-04T09:45:08.192Z,11.28
2018-08-04T09:50:02.842Z,11.53
2018-08-04T09:54:57.453Z,10.25
2018-08-04T09:59:52.153Z,10.78
2018-08-04T10:04:46.759Z,10.10
2018-08-04T10:09:41.371Z,9.73
2018-08-04T10:14:35.964Z,9.85
2018-08-04T10:19:30.552Z,8.98
2018-08-04T10:24:25.133Z,8.80
2018-08-04T10:29:19.748Z,8.78
2018-08-04T10:34:14.320Z,8.75
2018-08-04T10:39:10.377Z,8.00
2018-08-04T10:44:05.097Z,7.83
2018-08-04T10:48:59.728Z,7.47
2018-08-04T10:53:54.438Z,7.97
2018-08-04T10:58:48.999Z,7.20
2018-08-04T11:03:46.520Z,6.97
2018-08-04T11:08:41.146Z,6.17
2018-08-04T11:13:35.746Z,6.30
2018-08-04T11:18:30.368Z,6.10
2018-08-04T11:23:24.958Z,6.80
2018-08-04T11:28:19.509Z,7.45
2018-08-04T11:33:13.778Z,7.53
2018-08-04T11:38:08.347Z,7.67
2018-08-04T11:43:02.944Z,7.42
2018-08-04T11:47:57.551Z,6.58
2018-08-04T11:52:52.451Z,6.15
2018-08-04T11:57:47.064Z,5.62
2018-08-04T12:02:41.339Z,7.87
2018-08-04T12:07:35.974Z,7.78
2018-08-04T12:12:30.615Z,7.60
2018-08-04T12:17:25.385Z,7.40
2018-08-04T12:22:21.626Z,6.62
2018-08-04T12:27:16.271Z,6.37
2018-08-04T12:32:10.889Z,7.35
2018-08-04T12:37:05.569Z,7.03
2018-08-04T12:42:00.197Z,5.90
2018-08-04T12:46:54.815Z,5.75
2018-08-04T12:51:49.493Z,5.17
2018-08-04T12:56:44.100Z,5.37
2018-08-04T13:01:38.730Z,5.37
2018-08-04T13:06:33.813Z,5.20
2018-08-04T13:11:28.429Z,5.20
2018-08-04T13:16:23.089Z,5.25
2018-08-04T13:21:17.738Z,5.10
2018-08-04T13:26:12.328Z,5.30
2018-08-04T13:31:06.959Z,4.78
2018-08-04T13:36:01.583Z,5.10
2018-08-04T13:40:59.593Z,5.47
2018-08-04T13:45:54.367Z,5.60
2018-08-04T13:50:49.138Z,5.60
2018-08-04T13:55:43.896Z,5.62
2018-08-04T14:00:38.743Z,5.97
2018-08-04T14:05:33.640Z,5.33
2018-08-04T14:10:28.417Z,5.87
2018-08-04T14:15:22.788Z,4.83
2018-08-04T14:20:17.523Z,5.87
2018-08-04T14:25:25.123Z,5.50
2018-08-04T14:30:19.840Z,5.55
2018-08-04T14:35:14.512Z,5.80
2018-08-04T14:40:09.372Z,6.12
2018-08-04T14:45:04.232Z,6.25
2018-08-04T14:49:58.990Z,6.83
2018-08-04T14:54:53.752Z,6.87
2018-08-04T14:59:48.535Z,7.47
2018-08-04T15:04:43.419Z,7.67
2018-08-04T15:09:38.011Z,7.30
2018-08-04T15:14:32.707Z,7.42
2018-08-04T15:19:27.821Z,7.40
2018-08-04T15:24:22.630Z,7.78
2018-08-04T15:29:19.048Z,8.68
2018-08-04T15:34:13.918Z,8.70
2018-08-04T15:39:10.316Z,7.75
2018-08-04T15:44:04.907Z,8.60
2018-08-04T15:48:59.624Z,8.85
2018-08-04T15:53:54.401Z,9.08
2018-08-04T15:58:49.188Z,8.25
2018-08-04T16:03:44.206Z,8.15
2018-08-04T16:08:39.252Z,8.20
2018-08-04T16:13:34.223Z,7.92
2018-08-04T16:18:29.086Z,8.25
2018-08-04T16:23:23.820Z,8.20
2018-08-04T16:28:18.748Z,8.10
2018-08-04T16:33:13.584Z,9.13
2018-08-04T16:38:08.276Z,8.48
2018-08-04T16:43:02.998Z,7.83
2018-08-04T16:47:57.707Z,8.20
2018-08-04T16:52:52.441Z,7.97
2018-08-04T16:57:47.222Z,7.60
2018-08-04T17:02:42.361Z,7.95
2018-08-04T17:07:37.288Z,7.95
2018-08-04T17:12:32.211Z,7.28
2018-08-04T17:17:27.008Z,7.87
2018-08-04T17:22:21.785Z,7.62
2018-08-04T17:27:25.478Z,8.08
2018-08-04T17:32:21.176Z,8.48
2018-08-04T17:37:15.933Z,8.00
2018-08-04T17:42:10.651Z,7.75
2018-08-04T17:47:05.499Z,7.40
2018-08-04T17:52:00.320Z,8.30
2018-08-04T17:56:55.184Z,8.60
2018-08-04T18:01:50.791Z,8.55
2018-08-04T18:06:45.647Z,9.05
2018-08-04T18:11:40.860Z,9.50
2018-08-04T18:16:35.868Z,9.05
2018-08-04T18:21:30.929Z,8.93
2018-08-04T18:26:25.701Z,9.43
2018-08-04T18:31:20.468Z,9.18
2018-08-04T18:36:15.342Z,8.75
2018-08-04T18:41:10.132Z,9.25
2018-08-04T18:46:04.933Z,9.05
2018-08-04T18:50:59.834Z,9.43
2018-08-04T18:55:54.739Z,8.75
2018-08-04T19:00:49.511Z,9.33
2018-08-04T19:05:44.383Z,8.38
2018-08-04T19:10:39.171Z,8.23
2018-08-04T19:15:34.065Z,8.20
2018-08-04T19:20:28.959Z,8.18
2018-08-04T19:25:24.727Z,9.75
2018-08-04T19:30:19.517Z,13.32
2018-08-04T19:35:14.268Z,12.18
2018-08-04T19:40:09.255Z,10.98
2018-08-04T19:45:04.259Z,11.28
2018-08-04T19:49:59.113Z,10.48
2018-08-04T19:54:54.261Z,9.10
2018-08-04T19:59:49.851Z,8.60
2018-08-04T20:04:44.709Z,9.13
2018-08-04T20:09:39.667Z,8.83
2018-08-04T20:14:34.558Z,8.35
2018-08-04T20:19:29.399Z,7.90
2018-08-04T20:24:24.204Z,8.38
2018-08-04T20:29:19.234Z,8.25
2018-08-04T20:34:14.105Z,9.20
2018-08-04T20:39:10.723Z,14.35
2018-08-04T20:44:05.664Z,13.53
2018-08-04T20:49:00.464Z,11.45
2018-08-04T20:53:55.263Z,10.45
2018-08-04T20:58:50.239Z,11.12
2018-08-04T21:03:45.131Z,9.95
2018-08-04T21:08:39.939Z,9.78
2018-08-04T21:13:34.748Z,10.28
2018-08-04T21:18:29.645Z,9.93
2018-08-04T21:23:24.439Z,9.33
2018-08-04T21:28:20.032Z,9.00
2018-08-04T21:33:14.973Z,9.05
2018-08-04T21:38:09.736Z,8.75
2018-08-04T21:43:04.554Z,9.10
2018-08-04T21:47:59.319Z,8.75
2018-08-04T21:52:55.807Z,9.75
2018-08-04T21:57:50.639Z,8.88
2018-08-04T22:02:58.967Z,9.13
2018-08-04T22:08:11.566Z,10.10
2018-08-04T22:13:06.813Z,9.90
2018-08-04T22:18:01.727Z,9.25
2018-08-04T22:22:56.244Z,9.33
2018-08-04T22:27:51.310Z,9.40
2018-08-04T22:32:46.596Z,9.10
2018-08-04T22:37:41.922Z,9.73
2018-08-04T22:42:37.925Z,9.30
2018-08-04T22:47:32.834Z,10.05
2018-08-04T22:52:27.842Z,9.80
2018-08-04T22:57:22.607Z,9.68
2018-08-04T23:02:17.317Z,9.85
2018-08-04T23:07:12.123Z,9.55
2018-08-04T23:12:07.004Z,9.93
2018-08-04T23:17:02.018Z,10.30
2018-08-04T23:21:56.808Z,10.03
2018-08-04T23:26:52.042Z,10.85
2018-08-04T23:31:47.129Z,10.72
2018-08-04T23:36:41.910Z,10.45
2018-08-04T23:41:36.832Z,10.68
2018-08-04T23:46:31.338Z,11.15
2018-08-04T23:51:26.934Z,10.65
2018-08-04T23:56:21.812Z,10.70
